createdAt,value
2018-02-19T00:01:14.747Z,14.83
2018-02-19T00:03:43.036Z,16.13
2018-02-19T00:06:11.067Z,15.20
2018-02-19T00:08:39.213Z,13.30
2018-02-19T00:11:07.270Z,15.17
2018-02-19T00:13:35.418Z,14.40
2018-02-19T00:16:03.585Z,15.03
2018-02-19T00:18:31.621Z,15.90
2018-02-19T00:21:00.386Z,13.37
2018-02-19T00:23:28.567Z,14.23
2018-02-19T00:25:56.606Z,14.00
2018-02-19T00:28:24.643Z,15.10
2018-02-19T00:30:52.795Z,14.37
2018-02-19T00:33:21.646Z,14.23
2018-02-19T00:35:49.694Z,14.37
2018-02-19T00:38:17.842Z,13.47
2018-02-19T00:40:46.618Z,13.27
2018-02-19T00:43:14.695Z,12.90
2018-02-19T00:45:43.622Z,14.20
2018-02-19T00:48:11.654Z,15.33
2018-02-19T00:50:39.690Z,13.20
2018-02-19T00:53:07.846Z,13.20
2018-02-19T00:55:35.874Z,15.07
2018-02-19T00:58:04.662Z,12.83
2018-02-19T01:00:32.826Z,13.87
2018-02-19T01:03:00.882Z,13.73
2018-02-19T01:05:29.054Z,12.50
2018-02-19T01:07:57.212Z,13.50
2018-02-19T01:10:25.251Z,13.90
2018-02-19T01:12:54.044Z,12.13
2018-02-19T01:15:22.995Z,13.13
2018-02-19T01:17:51.051Z,12.67
2018-02-19T01:20:19.081Z,12.77
2018-02-19T01:22:47.986Z,12.70
2018-02-19T01:25:16.017Z,12.43
2018-02-19T01:27:44.091Z,13.57
2018-02-19T01:30:12.262Z,12.33
2018-02-19T01:32:40.326Z,13.13
2018-02-19T01:35:08.366Z,13.00
2018-02-19T01:37:36.546Z,12.73
2018-02-19T01:40:04.566Z,12.00
2018-02-19T01:42:33.338Z,11.53
2018-02-19T01:45:01.491Z,10.27
2018-02-19T01:47:29.518Z,9.90
2018-02-19T01:50:09.830Z,9.80
2018-02-19T01:52:37.876Z,11.33
2018-02-19T01:55:05.915Z,9.47
2018-02-19T01:57:34.827Z,9.87
2018-02-19T02:00:02.879Z,10.70
2018-02-19T02:02:31.682Z,11.47
2018-02-19T02:04:59.990Z,9.57
2018-02-19T02:07:28.170Z,10.90
2018-02-19T02:09:56.432Z,9.97
2018-02-19T02:12:24.587Z,10.00
2018-02-19T02:14:53.350Z,12.20
2018-02-19T02:17:21.382Z,10.17
2018-02-19T02:19:49.550Z,11.37
2018-02-19T02:22:17.591Z,10.50
2018-02-19T02:24:46.418Z,12.97
2018-02-19T02:27:14.589Z,10.50
2018-02-19T02:29:42.618Z,11.90
2018-02-19T02:32:11.382Z,11.90
2018-02-19T02:34:39.645Z,11.20
2018-02-19T02:37:07.674Z,11.97
2018-02-19T02:39:35.706Z,11.63
2018-02-19T02:42:03.887Z,12.50
2018-02-19T02:44:32.015Z,10.97
2018-02-19T02:47:00.120Z,12.03
2018-02-19T02:49:28.315Z,12.33
2018-02-19T02:51:57.082Z,13.20
2018-02-19T02:54:25.380Z,12.97
2018-02-19T02:56:53.643Z,12.33
2018-02-19T02:59:21.706Z,10.87
2018-02-19T03:04:46.123Z,12.53
2018-02-19T03:07:14.894Z,13.67
2018-02-19T03:09:43.090Z,12.30
2018-02-19T03:12:11.118Z,11.90
2018-02-19T03:14:44.458Z,12.03
2018-02-19T03:17:12.758Z,13.70
2018-02-19T03:19:41.534Z,12.17
2018-02-19T03:22:09.574Z,12.47
2018-02-19T03:24:37.778Z,14.17
2018-02-19T03:27:05.943Z,12.93
2018-02-19T03:29:34.002Z,11.87
2018-02-19T03:32:02.085Z,14.00
2018-02-19T03:34:30.271Z,12.20
2018-02-19T03:36:58.302Z,12.87
2018-02-19T03:39:26.523Z,13.10
2018-02-19T03:41:54.675Z,11.03
2018-02-19T03:44:22.746Z,13.57
2018-02-19T03:46:50.786Z,13.10
2018-02-19T03:49:18.939Z,12.90
2018-02-19T03:51:47.761Z,12.80
2018-02-19T03:54:15.870Z,13.00
2018-02-19T03:56:44.045Z,12.00
2018-02-19T03:59:12.158Z,12.57
2018-02-19T04:01:40.954Z,14.87
2018-02-19T04:04:09.853Z,13.70
2018-02-19T04:06:37.918Z,13.30
2018-02-19T04:09:06.698Z,12.80
2018-02-19T04:11:35.743Z,13.50
2018-02-19T04:14:03.842Z,13.73
2018-02-19T04:16:31.890Z,13.03
2018-02-19T04:19:00.067Z,14.80
2018-02-19T04:21:28.235Z,14.90
2018-02-19T04:23:56.346Z,13.50
2018-02-19T04:26:24.517Z,13.30
2018-02-19T04:28:52.561Z,13.27
2018-02-19T04:31:20.648Z,12.23
2018-02-19T04:33:48.921Z,13.77
2018-02-19T04:36:16.993Z,14.80
2018-02-19T04:38:45.047Z,14.43
2018-02-19T04:41:13.215Z,14.13
2018-02-19T04:43:41.442Z,12.93
2018-02-19T04:46:11.245Z,13.90
2018-02-19T04:48:39.426Z,13.53
2018-02-19T04:51:07.494Z,14.77
2018-02-19T04:53:35.658Z,15.70
2018-02-19T04:56:03.827Z,13.47
2018-02-19T04:58:31.854Z,16.63
2018-02-19T05:00:59.891Z,16.67
2018-02-19T05:03:28.166Z,18.03
2018-02-19T05:05:56.338Z,17.90
2018-02-19T05:08:24.365Z,17.80
2018-02-19T05:10:52.527Z,16.73
2018-02-19T05:13:20.702Z,17.37
2018-02-19T05:15:48.749Z,15.57
2018-02-19T05:18:17.655Z,15.67
2018-02-19T05:20:46.443Z,13.63
2018-02-19T05:23:15.226Z,15.47
2018-02-19T05:25:44.167Z,14.23
2018-02-19T05:28:12.254Z,16.63
2018-02-19T05:30:40.302Z,14.97
2018-02-19T05:33:08.518Z,15.43
2018-02-19T05:35:36.553Z,14.07
2018-02-19T05:38:04.590Z,13.77
2018-02-19T05:40:33.543Z,13.70
2018-02-19T05:43:01.593Z,12.90
2018-02-19T05:45:29.615Z,12.50
2018-02-19T05:47:57.782Z,13.80
2018-02-19T05:50:26.582Z,13.30
2018-02-19T05:52:55.367Z,14.13
2018-02-19T05:55:23.530Z,12.67
2018-02-19T05:57:51.578Z,13.03
2018-02-19T06:00:19.632Z,12.73
2018-02-19T06:02:47.958Z,12.40
2018-02-19T06:05:16.000Z,13.40
2018-02-19T06:07:44.022Z,14.27
2018-02-19T06:10:12.926Z,13.53
2018-02-19T06:12:40.962Z,12.93
2018-02-19T06:15:09.154Z,12.70
2018-02-19T06:17:38.058Z,12.67
2018-02-19T06:20:06.827Z,12.30
2018-02-19T06:22:34.871Z,12.57
2018-02-19T06:25:03.038Z,14.70
2018-02-19T06:27:31.073Z,14.17
2018-02-19T06:29:59.102Z,13.90
2018-02-19T06:32:27.254Z,14.37
2018-02-19T06:34:55.291Z,13.63
2018-02-19T06:37:23.330Z,15.17
2018-02-19T06:39:51.502Z,14.80
2018-02-19T06:42:19.538Z,13.73
2018-02-19T06:44:47.622Z,14.90
2018-02-19T06:47:15.786Z,15.23
2018-02-19T06:49:43.830Z,16.50
2018-02-19T06:52:11.870Z,15.47
2018-02-19T06:54:40.151Z,16.07
2018-02-19T06:57:08.191Z,18.33
2018-02-19T06:59:36.238Z,17.20
2018-02-19T07:02:04.450Z,16.83
2018-02-19T07:04:32.615Z,17.10
2018-02-19T07:07:00.647Z,15.50
2018-02-19T07:09:28.810Z,17.60
2018-02-19T07:11:57.575Z,17.53
2018-02-19T07:14:25.747Z,16.83
2018-02-19T07:16:55.111Z,17.07
2018-02-19T07:19:23.202Z,17.73
2018-02-19T07:21:51.234Z,18.53
2018-02-19T07:24:19.469Z,18.87
2018-02-19T07:39:50.609Z,21.00
2018-02-19T07:42:18.650Z,18.57
2018-02-19T07:44:46.692Z,21.90
2018-02-19T07:47:14.871Z,21.37
2018-02-19T07:49:42.907Z,20.07
2018-02-19T07:52:10.943Z,21.70
2018-02-19T07:54:39.142Z,20.90
2018-02-19T07:57:07.170Z,21.67
2018-02-19T07:59:35.210Z,22.03
2018-02-19T08:02:04.106Z,21.97
2018-02-19T08:04:32.959Z,22.60
2018-02-19T08:07:00.987Z,23.97
2018-02-19T08:09:29.171Z,23.60
2018-02-19T08:11:57.198Z,22.10
2018-02-19T08:14:25.346Z,22.80
2018-02-19T08:16:53.559Z,21.43
2018-02-19T08:19:22.342Z,23.00
2018-02-19T08:21:50.411Z,22.77
2018-02-19T08:37:24.698Z,25.80
2018-02-19T08:39:52.897Z,26.50
2018-02-19T08:42:20.942Z,25.57
2018-02-19T08:44:49.103Z,24.00
2018-02-19T08:47:17.134Z,27.20
2018-02-19T08:49:45.910Z,22.83
2018-02-19T08:52:14.067Z,23.03
2018-02-19T08:54:42.258Z,26.03
2018-02-19T08:57:10.290Z,22.70
2018-02-19T08:59:38.461Z,23.07
2018-02-19T09:02:06.515Z,22.47
2018-02-19T09:04:34.611Z,22.60
2018-02-19T09:07:02.790Z,21.80
2018-02-19T09:09:30.834Z,20.77
2018-02-19T09:11:58.866Z,20.30
2018-02-19T09:14:27.141Z,19.53
2018-02-19T09:16:55.330Z,21.97
2018-02-19T09:19:23.375Z,20.20
2018-02-19T09:21:51.536Z,21.40
2018-02-19T09:24:19.603Z,21.43
2018-02-19T09:26:47.627Z,23.37
2018-02-19T09:29:16.528Z,21.67
2018-02-19T09:31:45.298Z,24.03
2018-02-19T09:34:13.458Z,24.17
2018-02-19T09:36:41.634Z,23.50
2018-02-19T09:39:09.658Z,25.10
2018-02-19T09:41:37.682Z,26.03
2018-02-19T09:44:05.852Z,25.40
2018-02-19T09:46:33.829Z,27.53
2018-02-19T09:49:01.752Z,26.83
2018-02-19T09:51:29.804Z,26.90
2018-02-19T09:53:58.481Z,28.63
2018-02-19T09:56:27.160Z,27.93
2018-02-19T09:58:55.204Z,25.67
2018-02-19T10:01:23.160Z,25.80
2018-02-19T10:03:51.195Z,27.73
2018-02-19T10:06:20.107Z,25.47
2018-02-19T10:08:48.140Z,26.33
2018-02-19T10:11:16.918Z,28.93
2018-02-19T10:13:45.090Z,25.70
2018-02-19T10:16:13.138Z,25.17
2018-02-19T10:18:41.318Z,26.03
2018-02-19T10:21:09.525Z,25.70
2018-02-19T10:23:38.386Z,23.80
2018-02-19T10:26:06.414Z,25.20
2018-02-19T10:28:34.575Z,25.50
2018-02-19T10:31:03.359Z,26.47
2018-02-19T10:33:32.158Z,29.53
2018-02-19T10:36:01.075Z,26.53
2018-02-19T10:38:29.102Z,28.63
2018-02-19T10:40:57.158Z,29.10
2018-02-19T10:43:25.332Z,27.20
2018-02-19T10:45:53.375Z,29.30
2018-02-19T10:48:21.430Z,29.87
2018-02-19T10:50:49.602Z,29.50
2018-02-19T10:53:17.647Z,27.37
2018-02-19T10:55:46.410Z,28.50
2018-02-19T10:58:14.586Z,28.90
2018-02-19T11:00:45.680Z,28.33
2018-02-19T11:03:13.792Z,27.13
2018-02-19T11:05:41.851Z,28.27
2018-02-19T11:08:09.891Z,28.50
2018-02-19T11:10:38.682Z,26.83
2018-02-19T11:13:07.471Z,27.30
2018-02-19T11:15:36.244Z,25.90
2018-02-19T11:18:05.030Z,26.73
2018-02-19T11:20:33.999Z,23.80
2018-02-19T11:23:02.154Z,24.40
2018-02-19T11:25:30.991Z,22.97
2018-02-19T11:27:59.763Z,22.60
2018-02-19T11:30:27.855Z,23.07
2018-02-19T11:32:56.651Z,24.50
2018-02-19T11:35:25.442Z,24.27
2018-02-19T11:37:54.231Z,25.23
2018-02-19T11:40:23.063Z,24.70
2018-02-19T11:42:51.146Z,27.13
2018-02-19T11:45:19.178Z,24.37
2018-02-19T11:47:47.233Z,24.87
2018-02-19T11:50:16.023Z,24.40
2018-02-19T11:52:44.810Z,24.50
2018-02-19T11:55:13.617Z,25.70
2018-02-19T11:57:42.415Z,24.40
2018-02-19T12:00:10.473Z,25.53
2018-02-19T12:02:39.235Z,25.07
2018-02-19T12:05:07.265Z,24.33
2018-02-19T12:07:35.303Z,24.93
2018-02-19T12:10:04.143Z,22.40
2018-02-19T12:12:32.219Z,25.37
2018-02-19T12:15:00.255Z,25.13
2018-02-19T12:17:28.371Z,24.10
2018-02-19T12:19:56.398Z,24.27
2018-02-19T12:22:24.567Z,23.30
2018-02-19T12:24:53.350Z,24.60
2018-02-19T12:27:22.131Z,26.97
2018-02-19T12:29:50.919Z,24.30
2018-02-19T12:32:19.706Z,25.23
2018-02-19T12:34:48.495Z,24.90
2018-02-19T12:37:17.295Z,27.73
2018-02-19T12:39:46.245Z,25.23
2018-02-19T12:42:14.310Z,27.10
2018-02-19T12:44:42.415Z,25.57
2018-02-19T12:47:10.463Z,27.17
2018-02-19T12:49:38.508Z,26.70
2018-02-19T12:52:06.538Z,29.03
2018-02-19T12:54:35.456Z,27.43
2018-02-19T12:57:03.499Z,27.50
2018-02-19T12:59:32.291Z,26.70
2018-02-19T13:02:00.334Z,26.00
2018-02-19T13:04:28.395Z,25.40
2018-02-19T13:06:56.452Z,24.57
2018-02-19T13:09:24.486Z,23.13
2018-02-19T13:11:53.262Z,25.83
2018-02-19T13:14:22.623Z,25.90
2018-02-19T13:16:50.831Z,25.60
2018-02-19T13:19:19.262Z,24.23
2018-02-19T13:21:47.765Z,23.37
2018-02-19T13:24:17.568Z,24.93
2018-02-19T13:26:45.594Z,24.70
2018-02-19T13:29:13.755Z,24.10
2018-02-19T13:31:42.196Z,26.17
2018-02-19T13:34:11.614Z,24.53
2018-02-19T13:36:39.890Z,26.13
2018-02-19T13:39:08.099Z,24.97
2018-02-19T13:41:36.135Z,24.73
2018-02-19T13:44:04.887Z,25.10
2018-02-19T13:46:33.560Z,27.83
2018-02-19T13:49:02.371Z,24.97
2018-02-19T13:51:30.426Z,26.00
2018-02-19T13:53:59.786Z,25.33
2018-02-19T13:56:27.962Z,25.17
2018-02-19T13:58:57.326Z,23.90
2018-02-19T14:01:25.779Z,23.20
2018-02-19T14:03:54.143Z,26.87
2018-02-19T14:06:23.786Z,26.63
2018-02-19T14:08:52.614Z,27.50
2018-02-19T14:11:21.401Z,24.43
2018-02-19T14:13:50.202Z,27.23
2018-02-19T14:16:18.251Z,24.07
2018-02-19T14:18:46.675Z,24.60
2018-02-19T14:21:14.706Z,26.30
2018-02-19T14:23:42.910Z,24.00
2018-02-19T14:26:11.466Z,25.93
2018-02-19T14:28:39.514Z,25.00
2018-02-19T14:31:08.289Z,24.20
2018-02-19T14:33:38.150Z,22.77
2018-02-19T14:36:07.103Z,25.20
2018-02-19T14:38:36.311Z,23.57
2018-02-19T14:41:04.695Z,23.73
2018-02-19T14:43:34.848Z,22.77
2018-02-19T14:46:02.941Z,24.23
2018-02-19T14:48:31.140Z,22.93
2018-02-19T14:51:00.233Z,24.30
2018-02-19T14:53:29.740Z,24.60
2018-02-19T14:55:58.989Z,23.77
2018-02-19T14:58:28.468Z,21.87
2018-02-19T15:00:57.157Z,22.47
2018-02-19T15:03:25.244Z,23.67
2018-02-19T15:05:54.055Z,23.03
2018-02-19T15:08:22.042Z,23.20
2018-02-19T15:10:50.360Z,23.80
2018-02-19T15:13:19.229Z,25.20
2018-02-19T15:15:47.785Z,23.57
2018-02-19T15:18:15.917Z,21.70
2018-02-19T15:20:44.161Z,23.30
2018-02-19T15:23:13.493Z,21.80
2018-02-19T15:25:42.760Z,24.80
2018-02-19T15:28:11.390Z,22.33
2018-02-19T15:30:40.533Z,22.67
2018-02-19T15:33:08.895Z,23.50
2018-02-19T15:35:37.536Z,23.13
2018-02-19T15:38:05.661Z,24.00
2018-02-19T15:40:34.449Z,23.63
2018-02-19T15:43:02.409Z,23.10
2018-02-19T15:45:30.925Z,24.83
2018-02-19T15:47:59.734Z,23.07
2018-02-19T15:50:27.800Z,26.03
2018-02-19T15:52:55.770Z,21.13
2018-02-19T15:55:25.666Z,23.97
2018-02-19T15:57:53.642Z,22.47
2018-02-19T16:00:21.795Z,22.60
2018-02-19T16:02:51.380Z,24.77
2018-02-19T16:05:20.536Z,24.30
2018-02-19T16:07:48.592Z,23.70
2018-02-19T16:10:16.669Z,24.73
2018-02-19T16:12:45.223Z,23.90
2018-02-19T16:15:13.766Z,22.17
2018-02-19T16:17:42.681Z,23.57
2018-02-19T16:20:11.401Z,23.60
2018-02-19T16:22:40.001Z,24.20
2018-02-19T16:25:09.393Z,24.87
2018-02-19T16:27:38.648Z,22.50
2018-02-19T16:30:08.073Z,23.20
2018-02-19T16:32:36.545Z,23.57
2018-02-19T16:35:06.559Z,23.40
2018-02-19T16:37:35.449Z,23.40
2018-02-19T16:40:04.458Z,22.90
2018-02-19T16:42:32.604Z,25.50
2018-02-19T16:45:01.180Z,24.43
2018-02-19T16:47:29.389Z,23.87
2018-02-19T16:49:57.949Z,28.20
2018-02-19T16:52:27.053Z,25.07
2018-02-19T16:54:59.261Z,24.83
2018-02-19T16:57:27.444Z,25.47
2018-02-19T16:59:55.746Z,23.00
2018-02-19T17:02:24.343Z,23.17
2018-02-19T17:04:53.524Z,23.77
2018-02-19T17:07:23.061Z,25.77
2018-02-19T17:09:52.305Z,23.20
2018-02-19T17:12:21.909Z,24.10
2018-02-19T17:14:50.979Z,24.30
2018-02-19T17:17:20.256Z,23.20
2018-02-19T17:19:50.353Z,23.73
2018-02-19T17:22:20.119Z,24.13
2018-02-19T17:24:48.772Z,20.70
2018-02-19T17:27:24.370Z,21.87
2018-02-19T17:29:54.561Z,20.30
2018-02-19T17:32:23.454Z,22.10
2018-02-19T17:34:52.314Z,17.23
2018-02-19T17:37:20.282Z,16.30
2018-02-19T17:39:48.245Z,16.83
2018-02-19T17:42:16.233Z,14.47
2018-02-19T17:44:44.305Z,17.83
2018-02-19T17:47:12.284Z,15.67
2018-02-19T17:49:40.240Z,14.97
2018-02-19T17:52:08.216Z,14.87
2018-02-19T17:54:36.286Z,16.20
2018-02-19T17:57:04.277Z,16.23
2018-02-19T17:59:33.173Z,15.23
2018-02-19T18:02:01.217Z,15.07
2018-02-19T18:04:29.329Z,15.13
2018-02-19T18:06:57.305Z,14.13
2018-02-19T18:09:26.005Z,14.87
2018-02-19T18:11:54.051Z,12.23
2018-02-19T18:14:22.247Z,12.90
2018-02-19T18:16:50.209Z,13.07
2018-02-19T18:19:18.901Z,12.73
2018-02-19T18:21:46.885Z,11.70
2018-02-19T18:24:14.906Z,11.60
2018-02-19T18:26:42.869Z,12.33
2018-02-19T18:29:10.875Z,13.87
2018-02-19T18:31:39.671Z,11.93
2018-02-19T18:34:07.827Z,12.67
2018-02-19T18:36:36.525Z,12.03
2018-02-19T18:39:05.606Z,13.40
2018-02-19T18:41:34.409Z,12.40
2018-02-19T18:44:03.189Z,11.77
2018-02-19T18:46:36.437Z,12.40
2018-02-19T18:49:05.409Z,12.10
2018-02-19T18:51:33.373Z,12.87
2018-02-19T18:54:01.482Z,12.33
2018-02-19T18:56:29.525Z,9.37
2018-02-19T18:58:58.368Z,10.83
2018-02-19T19:01:27.142Z,12.43
2018-02-19T19:03:55.411Z,10.83
2018-02-19T19:06:23.366Z,11.53
2018-02-19T19:09:02.873Z,10.67
2018-02-19T19:11:32.062Z,12.63
2018-02-19T19:14:00.561Z,11.40
2018-02-19T19:16:29.755Z,12.07
2018-02-19T19:18:58.641Z,11.90
2018-02-19T19:21:27.342Z,10.67
2018-02-19T19:23:55.498Z,10.90
2018-02-19T19:26:24.185Z,11.13
2018-02-19T19:28:52.873Z,10.73
2018-02-19T19:31:21.795Z,11.07
2018-02-19T19:33:49.915Z,10.93
2018-02-19T19:36:18.116Z,11.73
2018-02-19T19:38:47.040Z,10.93
2018-02-19T19:41:15.091Z,11.63
2018-02-19T19:43:43.947Z,8.90
2018-02-19T19:46:12.135Z,10.90
2018-02-19T19:48:40.204Z,10.63
2018-02-19T19:51:08.263Z,9.83
2018-02-19T19:53:36.439Z,11.27
2018-02-19T19:56:04.503Z,10.17
2018-02-19T19:58:32.557Z,11.10
2018-02-19T20:01:00.751Z,11.03
2018-02-19T20:03:28.804Z,11.40
2018-02-19T20:05:56.855Z,13.20
2018-02-19T20:08:25.045Z,12.40
2018-02-19T20:10:53.105Z,10.60
2018-02-19T20:13:21.260Z,12.97
2018-02-19T20:15:50.184Z,11.13
2018-02-19T20:18:18.240Z,10.87
2018-02-19T20:20:46.287Z,11.63
2018-02-19T20:23:14.462Z,13.70
2018-02-19T20:25:43.248Z,10.80
2018-02-19T20:28:11.304Z,11.13
2018-02-19T20:30:39.487Z,11.13
2018-02-19T20:33:07.539Z,11.93
2018-02-19T20:35:35.607Z,11.10
2018-02-19T20:38:03.939Z,10.90
2018-02-19T20:40:32.731Z,12.17
2018-02-19T20:43:01.535Z,11.07
2018-02-19T20:45:29.755Z,10.97
2018-02-19T20:47:57.816Z,11.47
2018-02-19T20:50:25.869Z,11.87
2018-02-19T20:52:54.052Z,11.67
2018-02-19T20:55:22.135Z,11.90
2018-02-19T20:57:50.175Z,10.97
2018-02-19T21:00:18.380Z,9.80
2018-02-19T21:02:46.425Z,10.77
2018-02-19T21:05:14.483Z,10.50
2018-02-19T21:07:43.410Z,10.60
2018-02-19T21:10:11.459Z,9.90
2018-02-19T21:12:39.504Z,10.77
2018-02-19T21:15:08.415Z,11.20
2018-02-19T21:17:36.479Z,11.07
2018-02-19T21:20:05.542Z,10.23
2018-02-19T21:22:33.743Z,12.10
2018-02-19T21:25:02.544Z,11.63
2018-02-19T21:27:31.336Z,10.57
2018-02-19T21:30:00.298Z,12.60
2018-02-19T21:32:29.107Z,11.73
2018-02-19T21:34:57.895Z,10.37
2018-02-19T21:37:26.840Z,12.73
2018-02-19T21:39:55.007Z,10.60
2018-02-19T21:42:23.115Z,11.07
2018-02-19T21:44:51.340Z,11.87
2018-02-19T21:47:19.415Z,10.67
2018-02-19T21:49:47.455Z,11.33
2018-02-19T21:52:16.374Z,11.80
2018-02-19T21:54:44.488Z,10.77
2018-02-19T21:57:12.543Z,10.17
2018-02-19T21:59:40.715Z,11.10
2018-02-19T22:02:08.767Z,10.67
2018-02-19T22:04:36.879Z,12.23
2018-02-19T22:07:05.060Z,12.60
2018-02-19T22:09:33.123Z,12.13
2018-02-19T22:12:01.165Z,11.47
2018-02-19T22:14:29.410Z,12.87
2018-02-19T22:16:57.454Z,12.27
2018-02-19T22:19:25.504Z,12.30
2018-02-19T22:21:53.680Z,12.70
2018-02-19T22:24:21.772Z,14.60
2018-02-19T22:26:49.823Z,14.50
2018-02-19T22:29:17.988Z,15.20
2018-02-19T22:31:46.076Z,16.47
2018-02-19T22:34:14.171Z,16.37
2018-02-19T22:36:42.354Z,16.53
2018-02-19T22:39:10.389Z,17.47
2018-02-19T22:41:38.591Z,18.60
2018-02-19T22:44:06.896Z,18.70
2018-02-19T22:46:35.708Z,18.77
2018-02-19T22:49:04.512Z,18.57
2018-02-19T22:51:32.680Z,17.67
2018-02-19T22:54:00.812Z,17.77
2018-02-19T22:56:28.859Z,18.80
2018-02-19T22:58:57.040Z,19.63
2018-02-19T23:01:25.900Z,19.00
2018-02-19T23:03:54.011Z,19.80
2018-02-19T23:06:22.192Z,19.23
2018-02-19T23:08:50.237Z,19.20
2018-02-19T23:11:18.297Z,18.40
2018-02-19T23:13:46.535Z,17.60
2018-02-19T23:16:14.724Z,18.10
2018-02-19T23:18:43.516Z,17.97
2018-02-19T23:21:12.447Z,18.70
2018-02-19T23:23:40.559Z,16.67
2018-02-19T23:26:08.620Z,17.43
2018-02-19T23:28:36.794Z,19.97
2018-02-19T23:31:04.864Z,17.17
2018-02-19T23:33:32.920Z,17.70
2018-02-19T23:36:01.098Z,17.90
2018-02-19T23:38:29.139Z,16.50
2018-02-19T23:40:57.184Z,19.70
2018-02-19T23:43:26.271Z,17.60
2018-02-19T23:45:54.340Z,18.33
2018-02-19T23:48:22.388Z,16.53
2018-02-19T23:50:50.563Z,18.70
2018-02-19T23:53:18.614Z,18.27
2018-02-19T23:55:46.663Z,18.80
2018-02-19T23:58:14.857Z,18.00
